Time;durP1;ratioP1;P1;durP2;ratioP2;P2;SDS_P1;SDS_P2;PMS_P1;PMS_P2;Temp;Humidity;BMP_temperature;BMP_pressure;BME280_temperature;BME280_humidity;BME280_pressure;Samples;Min_cycle;Max_cycle;Signal;HPM_P1;HPM_P2
2022/10/12 00:01:47;;;;;;;2.50;2.10;;;;;;;;;;5115029;28;20195;-69
2022/10/12 00:04:16;;;;;;;2.03;1.90;;;;;;;;;;5115991;28;20203;-69
2022/10/12 00:06:44;;;;;;;2.35;1.95;;;;;;;;;;5113785;28;20203;-69
2022/10/12 00:09:12;;;;;;;2.17;1.98;;;;;;;;;;5116249;28;20203;-68
2022/10/12 00:11:40;;;;;;;2.67;2.05;;;;;;;;;;5115757;28;20251;-68
2022/10/12 00:14:08;;;;;;;2.50;2.30;;;;;;;;;;5116872;28;20260;-68
2022/10/12 00:16:36;;;;;;;2.78;2.47;;;;;;;;;;5116994;28;20195;-69
2022/10/12 00:19:04;;;;;;;2.17;1.98;;;;;;;;;;5117577;28;20222;-68
2022/10/12 00:21:33;;;;;;;2.38;1.80;;;;;;;;;;5117226;28;20195;-68
2022/10/12 00:24:02;;;;;;;2.30;2.10;;;;;;;;;;5117640;28;20221;-69
2022/10/12 00:26:32;;;;;;;2.42;2.22;;;;;;;;;;5116833;28;20195;-69
2022/10/12 00:29:00;;;;;;;2.00;1.90;;;;;;;;;;5115896;28;20583;-68
2022/10/12 00:31:29;;;;;;;2.13;1.92;;;;;;;;;;5115432;28;20297;-69
2022/10/12 00:33:57;;;;;;;1.90;1.80;;;;;;;;;;5115829;28;20286;-69
2022/10/12 00:36:26;;;;;;;2.28;2.08;;;;;;;;;;5116731;28;20200;-68
2022/10/12 00:38:56;;;;;;;2.38;2.17;;;;;;;;;;5116393;28;20211;-68
2022/10/12 00:41:25;;;;;;;2.13;2.00;;;;;;;;;;5116595;28;20210;-69
2022/10/12 00:43:54;;;;;;;2.30;2.10;;;;;;;;;;5117003;28;20203;-69
2022/10/12 00:46:25;;;;;;;2.38;2.05;;;;;;;;;;5116864;28;20202;-68
2022/10/12 00:48:55;;;;;;;1.98;1.88;;;;;;;;;;5116775;28;20240;-68
2022/10/12 00:51:23;;;;;;;2.00;1.90;;;;;;;;;;5116642;28;20199;-68
2022/10/12 00:53:54;;;;;;;1.83;1.73;;;;;;;;;;5116397;28;20203;-69
2022/10/12 00:56:25;;;;;;;2.30;2.10;;;;;;;;;;5116752;28;20495;-68
2022/10/12 00:58:54;;;;;;;2.22;2.05;;;;;;;;;;5116705;28;20229;-68
2022/10/12 01:01:23;;;;;;;1.95;1.85;;;;;;;;;;5116475;28;20191;-68
2022/10/12 01:03:51;;;;;;;2.22;2.00;;;;;;;;;;5116395;28;20203;-69
2022/10/12 01:06:19;;;;;;;2.05;1.90;;;;;;;;;;5105501;28;20286;-68
2022/10/12 01:08:49;;;;;;;2.20;2.00;;;;;;;;;;5116188;28;20227;-69
2022/10/12 01:11:17;;;;;;;1.90;1.80;;;;;;;;;;5116304;28;20501;-69
2022/10/12 01:13:47;;;;;;;1.90;1.80;;;;;;;;;;5116296;28;20321;-69
2022/10/12 01:16:19;;;;;;;2.20;2.00;;;;;;;;;;5116190;28;20203;-69
2022/10/12 01:18:51;;;;;;;2.33;2.00;;;;;;;;;;5115457;28;20222;-69
2022/10/12 01:21:20;;;;;;;1.95;1.85;;;;;;;;;;5115915;28;20218;-68
2022/10/12 01:24:09;;;;;;;2.35;2.15;;;;;;;;;;5115375;28;20202;-68
2022/10/12 01:26:56;;;;;;;1.77;1.67;;;;;;;;;;5114928;28;20207;-68
2022/10/12 01:29:36;;;;;;;1.90;1.80;;;;;;;;;;5115607;28;20499;-69
2022/10/12 01:32:09;;;;;;;1.92;1.80;;;;;;;;;;5116304;28;20202;-68
2022/10/12 01:34:43;;;;;;;2.10;2.00;;;;;;;;;;5115695;28;20199;-68
2022/10/12 01:37:15;;;;;;;2.20;2.00;;;;;;;;;;5114602;28;20636;-68
2022/10/12 01:39:46;;;;;;;2.05;1.88;;;;;;;;;;5114709;28;20227;-69
2022/10/12 01:42:17;;;;;;;2.00;1.90;;;;;;;;;;5114381;28;20202;-69
2022/10/12 01:44:45;;;;;;;1.98;1.83;;;;;;;;;;5116093;28;20301;-68
2022/10/12 01:47:15;;;;;;;1.95;1.85;;;;;;;;;;5114209;28;20583;-68
2022/10/12 01:49:43;;;;;;;2.05;1.85;;;;;;;;;;5115968;28;20271;-68
2022/10/12 01:52:31;;;;;;;1.80;1.70;;;;;;;;;;5115181;28;20201;-68
2022/10/12 01:55:12;;;;;;;1.95;1.85;;;;;;;;;;5109381;28;20606;-69
2022/10/12 01:57:46;;;;;;;1.88;1.70;;;;;;;;;;5116096;28;20582;-69
2022/10/12 02:00:15;;;;;;;1.90;1.80;;;;;;;;;;5115076;28;20234;-68
2022/10/12 02:02:49;;;;;;;2.30;2.10;;;;;;;;;;5114003;28;20210;-68
2022/10/12 02:05:22;;;;;;;2.25;2.00;;;;;;;;;;5114782;28;20214;-69
2022/10/12 02:07:52;;;;;;;2.25;1.90;;;;;;;;;;5115142;28;20199;-68
2022/10/12 02:10:22;;;;;;;1.92;1.83;;;;;;;;;;5113856;28;20191;-69
2022/10/12 02:12:52;;;;;;;2.10;2.00;;;;;;;;;;5115198;28;20591;-68
2022/10/12 02:15:20;;;;;;;2.05;1.92;;;;;;;;;;5115648;28;20191;-68
2022/10/12 02:17:53;;;;;;;1.80;1.70;;;;;;;;;;5115223;28;20601;-69
2022/10/12 02:20:22;;;;;;;2.20;1.90;;;;;;;;;;5114793;28;20239;-69
2022/10/12 02:22:51;;;;;;;2.00;1.90;;;;;;;;;;5115147;28;20605;-68
2022/10/12 02:25:20;;;;;;;1.95;1.85;;;;;;;;;;5114946;28;20195;-68
2022/10/12 02:27:50;;;;;;;1.92;1.83;;;;;;;;;;5115803;28;20203;-68
2022/10/12 02:30:19;;;;;;;2.10;1.88;;;;;;;;;;5115212;28;20191;-69
2022/10/12 02:32:50;;;;;;;2.20;2.00;;;;;;;;;;5115191;28;20203;-68
2022/10/12 02:35:24;;;;;;;2.10;1.98;;;;;;;;;;5114414;28;20199;-69
2022/10/12 02:37:55;;;;;;;1.90;1.80;;;;;;;;;;5113762;28;20199;-68
2022/10/12 02:40:25;;;;;;;2.10;2.00;;;;;;;;;;5114966;28;20252;-68
2022/10/12 02:42:55;;;;;;;1.67;1.58;;;;;;;;;;5114928;28;20282;-69
2022/10/12 02:45:23;;;;;;;1.77;1.65;;;;;;;;;;5114942;28;20203;-69
2022/10/12 02:47:54;;;;;;;2.03;1.92;;;;;;;;;;5113159;28;20195;-69
2022/10/12 02:50:23;;;;;;;1.75;1.65;;;;;;;;;;5114811;28;20647;-68
2022/10/12 02:52:52;;;;;;;2.00;1.90;;;;;;;;;;5115110;28;20195;-69
2022/10/12 02:55:20;;;;;;;1.85;1.75;;;;;;;;;;5114087;28;20195;-68
2022/10/12 02:57:48;;;;;;;1.90;1.77;;;;;;;;;;5114647;28;20317;-69
2022/10/12 03:00:16;;;;;;;1.80;1.70;;;;;;;;;;5113624;28;20522;-68
2022/10/12 03:02:44;;;;;;;2.00;1.80;;;;;;;;;;5114197;28;20266;-69
2022/10/12 03:05:12;;;;;;;1.80;1.70;;;;;;;;;;5114734;28;20203;-69
2022/10/12 03:07:41;;;;;;;2.00;1.90;;;;;;;;;;5114012;28;20199;-68
2022/10/12 03:10:09;;;;;;;2.20;2.00;;;;;;;;;;5112324;28;20201;-69
2022/10/12 03:12:37;;;;;;;1.70;1.60;;;;;;;;;;5115204;28;20544;-69
2022/10/12 03:15:05;;;;;;;1.83;1.73;;;;;;;;;;5114783;28;20205;-68
2022/10/12 03:17:33;;;;;;;1.85;1.75;;;;;;;;;;5115366;28;20288;-68
2022/10/12 03:20:01;;;;;;;2.10;1.90;;;;;;;;;;5118361;28;20246;-69
2022/10/12 03:22:29;;;;;;;1.73;1.63;;;;;;;;;;5118217;28;20697;-68
2022/10/12 03:24:59;;;;;;;1.80;1.70;;;;;;;;;;5117877;28;20206;-69
2022/10/12 03:27:27;;;;;;;1.90;1.80;;;;;;;;;;5116992;28;20665;-68
2022/10/12 03:29:55;;;;;;;1.70;1.60;;;;;;;;;;5118261;28;20206;-68
2022/10/12 03:32:22;;;;;;;2.05;1.95;;;;;;;;;;5117723;28;20264;-68
2022/10/12 03:34:50;;;;;;;1.80;1.60;;;;;;;;;;5116896;28;20230;-68
2022/10/12 03:37:18;;;;;;;1.98;1.80;;;;;;;;;;5117262;28;20201;-68
2022/10/12 03:39:46;;;;;;;1.98;1.77;;;;;;;;;;5118514;28;20341;-69
2022/10/12 03:42:15;;;;;;;1.77;1.67;;;;;;;;;;5117792;28;20242;-69
2022/10/12 03:44:43;;;;;;;1.83;1.73;;;;;;;;;;5117128;28;20203;-68
2022/10/12 03:47:11;;;;;;;1.70;1.60;;;;;;;;;;5117234;28;20203;-68
2022/10/12 03:49:40;;;;;;;2.08;1.88;;;;;;;;;;5117146;28;20248;-68
2022/10/12 03:52:08;;;;;;;2.45;1.83;;;;;;;;;;5116106;28;20191;-68
2022/10/12 03:54:36;;;;;;;2.10;2.00;;;;;;;;;;5117293;28;20195;-68
2022/10/12 03:57:03;;;;;;;1.80;1.70;;;;;;;;;;5117435;28;20199;-68
2022/10/12 03:59:33;;;;;;;1.70;1.60;;;;;;;;;;5116180;28;20634;-68
2022/10/12 04:02:00;;;;;;;1.83;1.73;;;;;;;;;;5116767;28;20195;-68
2022/10/12 04:04:28;;;;;;;1.80;1.70;;;;;;;;;;5116634;28;20218;-68
2022/10/12 04:06:55;;;;;;;1.92;1.83;;;;;;;;;;5116728;28;20222;-68
2022/10/12 04:09:23;;;;;;;1.98;1.80;;;;;;;;;;5116890;28;20223;-68
2022/10/12 04:11:50;;;;;;;1.73;1.60;;;;;;;;;;5117247;28;20607;-68
2022/10/12 04:14:18;;;;;;;2.30;1.95;;;;;;;;;;5116175;28;20787;-68
2022/10/12 04:16:47;;;;;;;1.98;1.65;;;;;;;;;;5117994;28;20290;-68
2022/10/12 04:19:14;;;;;;;2.03;1.70;;;;;;;;;;5117059;28;20230;-68
2022/10/12 04:21:42;;;;;;;2.17;1.90;;;;;;;;;;5116699;28;20227;-68
2022/10/12 04:24:09;;;;;;;1.90;1.80;;;;;;;;;;5117096;28;20231;-68
2022/10/12 04:26:37;;;;;;;2.50;1.77;;;;;;;;;;5115959;28;20272;-67
2022/10/12 04:29:04;;;;;;;1.80;1.70;;;;;;;;;;5115759;28;20256;-68
2022/10/12 04:31:32;;;;;;;2.00;1.90;;;;;;;;;;5115414;28;20294;-68
2022/10/12 04:34:00;;;;;;;1.85;1.75;;;;;;;;;;5115155;28;20199;-68
2022/10/12 04:36:28;;;;;;;2.10;1.90;;;;;;;;;;5116120;28;20294;-68
2022/10/12 04:38:56;;;;;;;2.08;1.88;;;;;;;;;;5115435;28;20222;-69
2022/10/12 04:41:23;;;;;;;1.70;1.60;;;;;;;;;;5115439;28;20196;-68
2022/10/12 04:43:53;;;;;;;1.83;1.73;;;;;;;;;;5115238;28;20199;-68
2022/10/12 04:46:20;;;;;;;1.80;1.70;;;;;;;;;;5114120;28;20651;-68
2022/10/12 04:48:48;;;;;;;2.25;1.92;;;;;;;;;;5113956;28;20282;-67
2022/10/12 04:51:17;;;;;;;1.90;1.80;;;;;;;;;;5113661;28;20206;-68
2022/10/12 04:53:45;;;;;;;1.58;1.48;;;;;;;;;;5114595;28;20285;-68
2022/10/12 04:56:13;;;;;;;1.85;1.75;;;;;;;;;;5113480;28;20272;-68
2022/10/12 04:58:40;;;;;;;2.03;1.92;;;;;;;;;;5113138;28;20238;-68
2022/10/12 05:01:08;;;;;;;1.67;1.58;;;;;;;;;;5112985;28;20247;-68
2022/10/12 05:03:35;;;;;;;1.75;1.65;;;;;;;;;;5112646;28;20555;-68
2022/10/12 05:06:03;;;;;;;1.50;1.40;;;;;;;;;;5112234;28;20215;-68
2022/10/12 05:08:32;;;;;;;1.70;1.60;;;;;;;;;;5111484;28;20260;-68
2022/10/12 05:10:59;;;;;;;1.90;1.80;;;;;;;;;;5112743;28;20195;-68
2022/10/12 05:13:27;;;;;;;1.98;1.85;;;;;;;;;;5112462;28;20230;-68
2022/10/12 05:15:55;;;;;;;1.80;1.70;;;;;;;;;;5111514;28;20195;-68
2022/10/12 05:18:22;;;;;;;2.75;1.80;;;;;;;;;;5111402;28;20282;-68
2022/10/12 05:20:50;;;;;;;1.80;1.70;;;;;;;;;;5110558;28;20283;-68
2022/10/12 05:23:18;;;;;;;1.80;1.70;;;;;;;;;;5112288;28;20203;-68
2022/10/12 05:25:47;;;;;;;2.10;1.90;;;;;;;;;;5112693;28;20210;-68
2022/10/12 05:28:14;;;;;;;2.80;1.83;;;;;;;;;;5110012;28;20272;-69
2022/10/12 05:30:42;;;;;;;1.90;1.70;;;;;;;;;;5112891;27;20194;-69
2022/10/12 05:33:09;;;;;;;1.90;1.80;;;;;;;;;;5112757;28;20191;-68
2022/10/12 05:35:37;;;;;;;1.80;1.70;;;;;;;;;;5113163;28;20285;-68
2022/10/12 05:38:04;;;;;;;1.50;1.40;;;;;;;;;;5111391;28;20195;-69
2022/10/12 05:40:32;;;;;;;1.80;1.70;;;;;;;;;;5112112;27;20779;-68
2022/10/12 05:43:01;;;;;;;2.20;1.58;;;;;;;;;;5105982;27;20600;-68
2022/10/12 05:45:29;;;;;;;1.70;1.60;;;;;;;;;;5106782;28;20194;-68
2022/10/12 05:47:56;;;;;;;3.00;1.80;;;;;;;;;;5113508;28;20260;-68
2022/10/12 05:50:24;;;;;;;1.90;1.80;;;;;;;;;;5112835;28;20206;-68
2022/10/12 05:52:52;;;;;;;1.83;1.67;;;;;;;;;;5113610;28;20203;-68
2022/10/12 05:55:19;;;;;;;2.03;1.77;;;;;;;;;;5113823;28;20249;-68
2022/10/12 05:57:48;;;;;;;1.80;1.70;;;;;;;;;;5113780;28;20224;-68
2022/10/12 06:00:18;;;;;;;3.17;1.63;;;;;;;;;;5113464;28;20222;-68
2022/10/12 06:02:45;;;;;;;2.05;1.80;;;;;;;;;;5114144;28;20211;-68
2022/10/12 06:05:13;;;;;;;2.00;1.90;;;;;;;;;;5114217;28;20203;-68
2022/10/12 06:07:40;;;;;;;1.77;1.60;;;;;;;;;;5114716;28;20280;-68
2022/10/12 06:10:11;;;;;;;1.80;1.70;;;;;;;;;;5115144;28;20191;-68
2022/10/12 06:12:39;;;;;;;1.77;1.67;;;;;;;;;;5114721;28;20310;-68
2022/10/12 06:15:08;;;;;;;1.90;1.80;;;;;;;;;;5114409;28;20609;-68
2022/10/12 06:17:37;;;;;;;1.85;1.75;;;;;;;;;;5115691;28;20687;-68
2022/10/12 06:20:04;;;;;;;2.65;1.77;;;;;;;;;;5115614;28;20219;-68
2022/10/12 06:22:32;;;;;;;2.78;1.60;;;;;;;;;;5114476;28;20203;-69
2022/10/12 06:24:59;;;;;;;1.98;1.80;;;;;;;;;;5114712;28;20199;-68
2022/10/12 06:27:27;;;;;;;2.05;1.52;;;;;;;;;;5114473;28;20217;-68
2022/10/12 06:29:55;;;;;;;2.10;1.90;;;;;;;;;;5114459;28;20758;-67
2022/10/12 06:32:24;;;;;;;2.03;1.73;;;;;;;;;;5128559;28;20237;-69
2022/10/12 06:34:54;;;;;;;2.20;1.67;;;;;;;;;;5135202;28;20202;-68
2022/10/12 06:37:21;;;;;;;2.95;1.80;;;;;;;;;;5134859;28;20229;-68
2022/10/12 06:39:49;;;;;;;1.92;1.60;;;;;;;;;;5127023;28;20271;-67
2022/10/12 06:42:16;;;;;;;2.25;1.58;;;;;;;;;;5114961;28;20299;-69
2022/10/12 06:44:44;;;;;;;3.17;1.77;;;;;;;;;;5114503;28;20249;-68
2022/10/12 06:47:11;;;;;;;2.03;1.77;;;;;;;;;;5114352;28;20282;-68
2022/10/12 06:49:39;;;;;;;1.77;1.67;;;;;;;;;;5115385;28;20207;-68
2022/10/12 06:52:08;;;;;;;1.80;1.70;;;;;;;;;;5118520;28;20210;-68
2022/10/12 06:54:37;;;;;;;2.00;1.70;;;;;;;;;;5118802;28;20295;-68
2022/10/12 06:57:06;;;;;;;1.80;1.70;;;;;;;;;;5118441;28;20203;-68
2022/10/12 06:59:33;;;;;;;1.70;1.60;;;;;;;;;;5118492;28;20316;-68
2022/10/12 07:02:01;;;;;;;2.38;1.70;;;;;;;;;;5117952;28;20287;-68
2022/10/12 07:04:28;;;;;;;3.22;1.60;;;;;;;;;;5118322;28;20206;-68
2022/10/12 07:06:56;;;;;;;1.92;1.55;;;;;;;;;;5118438;28;20532;-68
2022/10/12 07:09:25;;;;;;;1.70;1.60;;;;;;;;;;5117870;28;20202;-68
2022/10/12 07:11:53;;;;;;;2.00;1.70;;;;;;;;;;5118049;28;20733;-68
2022/10/12 07:14:20;;;;;;;1.80;1.70;;;;;;;;;;5118453;28;20491;-68
2022/10/12 07:16:48;;;;;;;1.75;1.60;;;;;;;;;;5117354;28;20264;-68
2022/10/12 07:19:15;;;;;;;1.90;1.50;;;;;;;;;;5118268;28;20541;-68
2022/10/12 07:21:43;;;;;;;1.90;1.75;;;;;;;;;;5117839;28;20223;-68
2022/10/12 07:24:12;;;;;;;2.20;2.00;;;;;;;;;;5118198;28;20203;-68
2022/10/12 07:26:41;;;;;;;1.70;1.60;;;;;;;;;;5117147;28;20214;-68
2022/10/12 07:29:08;;;;;;;1.52;1.42;;;;;;;;;;5117892;28;20202;-68
2022/10/12 07:31:36;;;;;;;1.80;1.70;;;;;;;;;;5118124;28;20544;-68
2022/10/12 07:34:03;;;;;;;1.90;1.80;;;;;;;;;;5117034;28;20199;-68
2022/10/12 07:36:31;;;;;;;2.05;1.88;;;;;;;;;;5117723;28;20547;-68
2022/10/12 07:38:59;;;;;;;2.25;1.70;;;;;;;;;;5116423;28;20241;-68
2022/10/12 07:41:27;;;;;;;1.90;1.80;;;;;;;;;;5116249;28;20219;-68
2022/10/12 07:43:57;;;;;;;2.10;1.90;;;;;;;;;;5116937;28;20217;-68
2022/10/12 07:46:25;;;;;;;2.00;1.80;;;;;;;;;;5117438;28;20305;-68
2022/10/12 07:48:52;;;;;;;2.33;1.80;;;;;;;;;;5117085;28;20213;-68
2022/10/12 07:51:20;;;;;;;1.77;1.60;;;;;;;;;;5117670;28;20265;-68
2022/10/12 07:53:49;;;;;;;2.13;1.67;;;;;;;;;;5116247;28;20245;-68
2022/10/12 07:56:16;;;;;;;1.70;1.60;;;;;;;;;;5117657;28;20230;-68
2022/10/12 07:58:44;;;;;;;1.88;1.77;;;;;;;;;;5116822;28;20234;-68
2022/10/12 08:01:13;;;;;;;1.95;1.85;;;;;;;;;;5115987;28;20288;-69
2022/10/12 08:03:40;;;;;;;1.95;1.70;;;;;;;;;;5117072;28;20202;-69
2022/10/12 08:06:11;;;;;;;2.33;1.90;;;;;;;;;;5116280;28;20226;-69
2022/10/12 08:08:39;;;;;;;1.77;1.67;;;;;;;;;;5117165;28;20481;-69
2022/10/12 08:11:07;;;;;;;1.60;1.50;;;;;;;;;;5117476;28;20241;-69
2022/10/12 08:13:35;;;;;;;1.70;1.60;;;;;;;;;;5116151;28;20203;-69
2022/10/12 08:16:03;;;;;;;1.70;1.60;;;;;;;;;;5116618;28;20209;-68
2022/10/12 08:18:32;;;;;;;1.90;1.80;;;;;;;;;;5116369;28;20305;-68
2022/10/12 08:21:00;;;;;;;1.90;1.80;;;;;;;;;;5116350;28;20672;-69
2022/10/12 08:23:30;;;;;;;1.70;1.60;;;;;;;;;;5116764;28;20199;-68
2022/10/12 08:26:00;;;;;;;2.00;1.90;;;;;;;;;;5116578;28;20210;-68
2022/10/12 08:28:27;;;;;;;1.90;1.80;;;;;;;;;;5116383;28;20249;-68
2022/10/12 08:30:55;;;;;;;1.80;1.70;;;;;;;;;;5116383;28;20199;-68
2022/10/12 08:33:22;;;;;;;2.03;1.83;;;;;;;;;;5115970;28;20199;-69
2022/10/12 08:35:51;;;;;;;1.73;1.60;;;;;;;;;;5116312;28;20305;-68
2022/10/12 08:38:19;;;;;;;2.00;1.90;;;;;;;;;;5116637;28;20272;-69
2022/10/12 08:40:48;;;;;;;1.85;1.75;;;;;;;;;;5116073;28;20231;-69
2022/10/12 08:43:20;;;;;;;2.03;1.75;;;;;;;;;;5116586;28;20354;-69
2022/10/12 08:45:51;;;;;;;1.60;1.50;;;;;;;;;;5116172;28;20268;-69
2022/10/12 08:48:21;;;;;;;2.00;1.90;;;;;;;;;;5115615;28;20265;-68
2022/10/12 08:50:50;;;;;;;1.80;1.70;;;;;;;;;;5115563;28;20285;-68
2022/10/12 08:53:22;;;;;;;1.90;1.70;;;;;;;;;;5116072;28;20203;-69
2022/10/12 08:55:51;;;;;;;1.85;1.63;;;;;;;;;;5116214;28;20199;-68
2022/10/12 08:58:19;;;;;;;2.10;1.83;;;;;;;;;;5116771;28;20633;-68
2022/10/12 09:00:48;;;;;;;2.03;1.75;;;;;;;;;;5116200;28;20227;-68
2022/10/12 09:03:21;;;;;;;1.85;1.75;;;;;;;;;;5116181;28;20260;-68
2022/10/12 09:05:51;;;;;;;1.90;1.80;;;;;;;;;;5116221;28;20203;-69
2022/10/12 09:08:28;;;;;;;1.92;1.83;;;;;;;;;;5115542;28;20228;-68
2022/10/12 09:11:00;;;;;;;1.77;1.67;;;;;;;;;;5115571;28;20195;-68
2022/10/12 09:13:37;;;;;;;2.10;1.60;;;;;;;;;;5115092;28;20202;-68
2022/10/12 09:16:06;;;;;;;2.15;1.95;;;;;;;;;;5115842;28;20203;-68
2022/10/12 09:18:37;;;;;;;1.77;1.67;;;;;;;;;;5114487;28;20203;-69
2022/10/12 09:21:06;;;;;;;2.13;2.03;;;;;;;;;;5114025;28;20218;-68
2022/10/12 09:23:39;;;;;;;1.65;1.55;;;;;;;;;;5114954;28;20214;-69
2022/10/12 09:26:12;;;;;;;1.60;1.50;;;;;;;;;;5114400;28;20201;-68
2022/10/12 09:28:42;;;;;;;1.70;1.60;;;;;;;;;;5114802;28;20275;-68
2022/10/12 09:31:17;;;;;;;1.60;1.50;;;;;;;;;;5115376;28;20199;-68
2022/10/12 09:33:46;;;;;;;1.70;1.60;;;;;;;;;;5114469;28;20234;-68
2022/10/12 09:36:17;;;;;;;1.83;1.73;;;;;;;;;;5114549;28;20264;-68
2022/10/12 09:38:46;;;;;;;1.90;1.80;;;;;;;;;;5114624;28;20286;-68
2022/10/12 09:41:17;;;;;;;1.70;1.60;;;;;;;;;;5114196;28;20235;-69
2022/10/12 09:43:45;;;;;;;1.60;1.50;;;;;;;;;;5115294;28;20202;-69
2022/10/12 09:46:15;;;;;;;1.63;1.52;;;;;;;;;;5114902;28;20210;-69
2022/10/12 09:48:57;;;;;;;2.00;1.70;;;;;;;;;;5114910;28;20540;-68
2022/10/12 09:51:24;;;;;;;1.92;1.70;;;;;;;;;;5114182;28;20194;-68
2022/10/12 09:53:57;;;;;;;1.60;1.50;;;;;;;;;;5114877;28;20206;-69
2022/10/12 09:56:28;;;;;;;1.60;1.50;;;;;;;;;;5114670;28;20206;-68
2022/10/12 09:58:57;;;;;;;1.67;1.52;;;;;;;;;;5115721;28;20203;-68
2022/10/12 10:01:25;;;;;;;1.70;1.60;;;;;;;;;;5114227;28;20222;-69
2022/10/12 10:04:12;;;;;;;1.48;1.38;;;;;;;;;;5114031;28;20226;-68
2022/10/12 10:06:42;;;;;;;1.60;1.50;;;;;;;;;;5114495;28;20622;-68
2022/10/12 10:09:25;;;;;;;1.60;1.50;;;;;;;;;;5114737;28;20203;-69
2022/10/12 10:11:54;;;;;;;1.73;1.60;;;;;;;;;;5111959;28;20604;-69
2022/10/12 10:14:21;;;;;;;1.77;1.67;;;;;;;;;;5116531;28;20612;-70
2022/10/12 10:16:50;;;;;;;2.08;1.88;;;;;;;;;;5113945;28;20199;-69
2022/10/12 10:19:18;;;;;;;2.05;1.50;;;;;;;;;;5093434;28;20192;-70
2022/10/12 10:21:46;;;;;;;3.17;1.60;;;;;;;;;;5094713;28;20246;-69
2022/10/12 10:24:22;;;;;;;1.95;1.33;;;;;;;;;;5099600;28;20294;-70
2022/10/12 10:26:55;;;;;;;2.45;1.42;;;;;;;;;;5093403;28;20195;-69
2022/10/12 10:29:35;;;;;;;1.85;1.30;;;;;;;;;;5093909;28;20316;-70
2022/10/12 10:32:22;;;;;;;1.50;1.40;;;;;;;;;;5094435;28;20663;-70
2022/10/12 10:35:00;;;;;;;2.38;1.33;;;;;;;;;;5093823;28;20204;-68
2022/10/12 10:37:28;;;;;;;1.38;1.27;;;;;;;;;;5099160;28;20649;-68
2022/10/12 10:39:57;;;;;;;1.50;1.40;;;;;;;;;;5100756;28;20229;-67
2022/10/12 10:42:28;;;;;;;2.05;1.45;;;;;;;;;;5113623;28;20691;-68
2022/10/12 10:44:59;;;;;;;1.88;1.35;;;;;;;;;;5113445;28;20504;-69
2022/10/12 10:47:27;;;;;;;1.65;1.33;;;;;;;;;;5114512;28;20258;-68
2022/10/12 10:49:56;;;;;;;1.90;1.25;;;;;;;;;;5122237;28;20267;-68
2022/10/12 10:52:25;;;;;;;2.28;1.42;;;;;;;;;;5133640;28;20198;-67
2022/10/12 10:55:06;;;;;;;1.42;1.30;;;;;;;;;;5133536;28;20477;-69
2022/10/12 10:57:37;;;;;;;2.42;1.40;;;;;;;;;;5133156;28;20237;-70
2022/10/12 11:00:06;;;;;;;1.30;1.20;;;;;;;;;;5133751;28;20281;-69
2022/10/12 11:02:39;;;;;;;1.50;1.30;;;;;;;;;;5133920;28;20460;-69
2022/10/12 11:05:12;;;;;;;1.77;1.23;;;;;;;;;;5134370;28;20241;-67
2022/10/12 11:07:42;;;;;;;1.75;1.42;;;;;;;;;;5121060;28;20812;-68
2022/10/12 11:10:16;;;;;;;1.40;1.20;;;;;;;;;;5113024;28;20654;-68
2022/10/12 11:12:48;;;;;;;1.83;1.20;;;;;;;;;;5113154;28;20202;-68
2022/10/12 11:15:19;;;;;;;1.10;1.00;;;;;;;;;;5113173;28;20264;-67
2022/10/12 11:17:47;;;;;;;1.75;1.30;;;;;;;;;;5113077;28;20301;-69
2022/10/12 11:20:29;;;;;;;2.38;1.30;;;;;;;;;;5112238;28;20301;-69
2022/10/12 11:23:00;;;;;;;1.40;1.30;;;;;;;;;;5112840;28;20321;-69
2022/10/12 11:25:31;;;;;;;1.35;1.20;;;;;;;;;;5113205;28;20298;-69
2022/10/12 11:28:00;;;;;;;1.52;1.20;;;;;;;;;;5114230;28;20211;-69
2022/10/12 11:30:32;;;;;;;1.00;0.90;;;;;;;;;;5113069;28;20268;-69
2022/10/12 11:33:01;;;;;;;1.20;1.08;;;;;;;;;;5112526;28;20191;-68
2022/10/12 11:35:31;;;;;;;1.30;1.20;;;;;;;;;;5114033;28;20297;-68
2022/10/12 11:38:00;;;;;;;1.70;1.20;;;;;;;;;;5114510;28;20289;-68
2022/10/12 11:40:29;;;;;;;1.30;1.20;;;;;;;;;;5116293;28;20622;-70
2022/10/12 11:42:58;;;;;;;2.17;1.00;;;;;;;;;;5116632;28;20622;-69
2022/10/12 11:45:31;;;;;;;1.38;1.00;;;;;;;;;;5116620;28;20301;-65
2022/10/12 11:48:01;;;;;;;1.00;1.00;;;;;;;;;;5116112;28;20540;-65
2022/10/12 11:50:30;;;;;;;1.38;1.27;;;;;;;;;;5120094;27;20290;-65
2022/10/12 11:52:58;;;;;;;2.47;1.20;;;;;;;;;;5136343;27;20245;-65
2022/10/12 11:55:32;;;;;;;1.25;1.00;;;;;;;;;;5136942;27;20281;-65
2022/10/12 11:58:03;;;;;;;1.58;1.13;;;;;;;;;;5137233;27;20206;-65
2022/10/12 12:00:36;;;;;;;1.65;1.10;;;;;;;;;;5134011;27;20222;-65
2022/10/12 12:03:10;;;;;;;1.52;1.17;;;;;;;;;;5117227;28;20233;-65
2022/10/12 12:05:38;;;;;;;2.75;1.30;;;;;;;;;;5116155;28;20239;-65
2022/10/12 12:08:05;;;;;;;2.10;1.20;;;;;;;;;;5116290;28;20207;-65
2022/10/12 12:10:52;;;;;;;2.33;1.00;;;;;;;;;;5116359;28;20203;-65
2022/10/12 12:13:25;;;;;;;1.30;1.20;;;;;;;;;;5116785;28;20205;-65
2022/10/12 12:16:12;;;;;;;1.30;1.20;;;;;;;;;;5115888;28;20203;-65
2022/10/12 12:18:54;;;;;;;1.48;1.00;;;;;;;;;;5116136;28;20213;-65
2022/10/12 12:21:23;;;;;;;2.03;1.10;;;;;;;;;;5114909;28;20295;-65
2022/10/12 12:23:52;;;;;;;1.80;1.30;;;;;;;;;;5116054;28;20310;-65
2022/10/12 12:26:21;;;;;;;1.20;1.10;;;;;;;;;;5115603;28;20231;-66
2022/10/12 12:28:49;;;;;;;1.20;1.10;;;;;;;;;;5115334;28;20203;-65
2022/10/12 12:31:18;;;;;;;1.52;1.10;;;;;;;;;;5115346;28;20249;-65
2022/10/12 12:33:46;;;;;;;1.20;1.10;;;;;;;;;;5115697;28;20206;-65
2022/10/12 12:36:15;;;;;;;1.23;1.13;;;;;;;;;;5115585;28;20203;-65
2022/10/12 12:38:51;;;;;;;1.45;1.35;;;;;;;;;;5115289;28;20202;-65
2022/10/12 12:41:19;;;;;;;1.70;1.27;;;;;;;;;;5114190;28;20328;-65
2022/10/12 12:44:01;;;;;;;1.45;1.20;;;;;;;;;;5115982;28;20210;-65
2022/10/12 12:46:47;;;;;;;1.13;1.00;;;;;;;;;;5115798;28;20199;-65
2022/10/12 12:49:28;;;;;;;1.20;1.10;;;;;;;;;;5115046;28;20301;-65
2022/10/12 12:51:56;;;;;;;1.25;1.15;;;;;;;;;;5115576;28;20271;-65
2022/10/12 12:54:25;;;;;;;1.95;1.45;;;;;;;;;;5115100;28;20209;-65
2022/10/12 12:57:06;;;;;;;1.65;1.20;;;;;;;;;;5116049;28;20222;-65
2022/10/12 12:59:48;;;;;;;1.63;1.35;;;;;;;;;;5115085;28;20614;-65
2022/10/12 13:02:30;;;;;;;1.25;1.15;;;;;;;;;;5115783;28;20244;-65
2022/10/12 13:05:08;;;;;;;1.40;1.02;;;;;;;;;;5112575;28;20297;-65
2022/10/12 13:07:47;;;;;;;1.10;1.00;;;;;;;;;;5115787;28;20202;-65
2022/10/12 13:10:26;;;;;;;1.20;1.10;;;;;;;;;;5115307;28;20234;-65
2022/10/12 13:13:03;;;;;;;0.95;0.95;;;;;;;;;;5114798;28;20471;-65
2022/10/12 13:15:38;;;;;;;1.63;1.00;;;;;;;;;;5114670;28;20491;-65
2022/10/12 13:18:17;;;;;;;1.38;1.08;;;;;;;;;;5115260;28;20202;-65
2022/10/12 13:20:46;;;;;;;1.50;1.10;;;;;;;;;;5114406;28;20206;-65
2022/10/12 13:23:17;;;;;;;1.33;1.20;;;;;;;;;;5115010;28;20259;-65
2022/10/12 13:25:47;;;;;;;1.15;1.05;;;;;;;;;;5114201;28;20199;-65
2022/10/12 13:28:16;;;;;;;1.20;1.10;;;;;;;;;;5113944;28;20279;-65
2022/10/12 13:30:47;;;;;;;1.20;1.10;;;;;;;;;;5115252;28;20213;-65
2022/10/12 13:33:19;;;;;;;1.20;1.10;;;;;;;;;;5114912;28;20199;-65
2022/10/12 13:35:49;;;;;;;1.40;1.30;;;;;;;;;;5113642;28;20784;-65
2022/10/12 13:38:21;;;;;;;1.35;0.98;;;;;;;;;;5114971;28;20210;-65
2022/10/12 13:41:01;;;;;;;1.15;1.00;;;;;;;;;;5114128;28;20299;-65
2022/10/12 13:43:30;;;;;;;1.30;1.20;;;;;;;;;;5114638;28;20317;-65
2022/10/12 13:45:58;;;;;;;1.73;1.10;;;;;;;;;;5113634;28;20203;-65
2022/10/12 13:48:25;;;;;;;1.17;1.08;;;;;;;;;;5113813;28;20195;-65
2022/10/12 13:50:55;;;;;;;1.30;1.20;;;;;;;;;;5114171;28;20740;-65
2022/10/12 13:53:22;;;;;;;1.20;1.10;;;;;;;;;;5114822;28;20238;-65
2022/10/12 13:55:52;;;;;;;1.40;1.20;;;;;;;;;;5115106;28;20344;-65
2022/10/12 13:58:25;;;;;;;1.40;1.30;;;;;;;;;;5114516;28;20320;-65
2022/10/12 14:00:52;;;;;;;1.10;1.00;;;;;;;;;;5113912;28;20207;-65
2022/10/12 14:03:24;;;;;;;1.85;1.25;;;;;;;;;;5114848;28;20223;-65
2022/10/12 14:05:52;;;;;;;1.20;1.10;;;;;;;;;;5114071;28;20637;-65
2022/10/12 14:08:24;;;;;;;1.13;1.02;;;;;;;;;;5114746;28;20249;-65
2022/10/12 14:11:00;;;;;;;1.10;0.93;;;;;;;;;;5114011;28;20218;-65
2022/10/12 14:13:30;;;;;;;1.00;0.90;;;;;;;;;;5114205;28;20217;-65
2022/10/12 14:15:58;;;;;;;1.27;1.17;;;;;;;;;;5112677;28;20290;-65
2022/10/12 14:18:36;;;;;;;1.52;1.20;;;;;;;;;;5114150;28;20203;-65
2022/10/12 14:21:08;;;;;;;1.30;1.20;;;;;;;;;;5114016;28;20234;-66
2022/10/12 14:23:35;;;;;;;1.27;1.17;;;;;;;;;;5114266;28;20233;-65
2022/10/12 14:26:03;;;;;;;1.55;1.45;;;;;;;;;;5113492;28;20264;-65
2022/10/12 14:28:34;;;;;;;1.20;1.10;;;;;;;;;;5113874;28;20238;-65
2022/10/12 14:31:01;;;;;;;1.00;0.98;;;;;;;;;;5113063;28;20203;-65
2022/10/12 14:33:30;;;;;;;1.20;1.10;;;;;;;;;;5095156;28;20284;-66
2022/10/12 14:36:12;;;;;;;1.25;1.08;;;;;;;;;;5113485;28;20298;-65
2022/10/12 14:38:41;;;;;;;1.23;1.13;;;;;;;;;;5113791;28;20211;-65
2022/10/12 14:41:27;;;;;;;1.10;1.10;;;;;;;;;;5132265;28;20265;-65
2022/10/12 14:44:05;;;;;;;1.40;1.30;;;;;;;;;;5122654;28;20734;-65
2022/10/12 14:46:33;;;;;;;1.10;1.00;;;;;;;;;;5113687;28;20268;-65
2022/10/12 14:49:01;;;;;;;1.05;1.02;;;;;;;;;;5114224;28;20231;-65
2022/10/12 14:51:28;;;;;;;0.98;0.93;;;;;;;;;;5113711;28;20293;-66
2022/10/12 14:53:59;;;;;;;1.10;1.00;;;;;;;;;;5113270;28;20289;-65
2022/10/12 14:56:27;;;;;;;1.20;1.10;;;;;;;;;;5113774;28;20203;-65
2022/10/12 14:58:54;;;;;;;1.00;0.90;;;;;;;;;;5112393;28;20826;-65
2022/10/12 15:01:24;;;;;;;0.95;0.95;;;;;;;;;;5113402;28;20541;-65